HFX weather

Sea Fox 2 Helipad
Ciudad del Carmen, Campeche, Mexico

Public forecast

Using degrees Celsius for public forecast. Weather courtesy of forecast.io.

METAR (pilot weather report)

Closest report is Ciudad del Carmen International Airport, 52.5 nm (97.3 km) SSE. Retrieved 2019/06/15 20:46 UTC (1 hour ago):

MMCE 152046Z 13005KT 7SM FEW020TCU SCT250 32/23 A2985 RMK SLP105 57024 970 8/208 AC

TAF (pilot weather forecast)

Closest forecast is Ciudad del Carmen International Airport, 52.5 nm (97.3 km) SSE. Retrieved 2019/06/15 18:09 UTC (4 hours ago):

TAF TAF MMCE 151707Z 1518/1618 12012KT 6SM HZ SCT020 BKN090 FM152100 02012KT 6SM HZ BKN020CB BKN090 TEMPO 1522/1602 3SM TSRA FM160300 09008KT 6SM -RA BKN020CB OVC090 FM160600 12010KT 6SM HZ SCT020 BKN090 BECMG 1612/1613 12015KT